Time;durP1;ratioP1;P1;durP2;ratioP2;P2;SDS_P1;SDS_P2;PMS_P1;PMS_P2;Temp;Humidity;BMP_temperature;BMP_pressure;BME280_temperature;BME280_humidity;BME280_pressure;Samples;Min_cycle;Max_cycle;Signal;HPM_P1;HPM_P2
2022/05/21 00:01:00;;;;;;;10.55;2.87;;;;;;;;;;4505887;77;28526;-81
2022/05/21 00:07:01;;;;;;;13.43;2.40;;;;;;;;;;4508775;77;28532;-81
2022/05/21 00:13:02;;;;;;;4.92;1.90;;;;;;;;;;4499023;77;28552;-81
2022/05/21 00:19:03;;;;;;;12.78;2.30;;;;;;;;;;4530032;77;29119;-80
2022/05/21 00:25:04;;;;;;;5.08;1.37;;;;;;;;;;4515162;78;28548;-81
2022/05/21 00:31:12;;;;;;;3.83;1.20;;;;;;;;;;4506309;77;28504;-81
2022/05/21 00:37:13;;;;;;;4.53;1.15;;;;;;;;;;4498462;77;28510;-80
2022/05/21 00:43:33;;;;;;;1.20;0.90;;;;;;;;;;4505698;77;28462;-80
2022/05/21 00:49:36;;;;;;;3.22;0.98;;;;;;;;;;4505822;77;28500;-80
2022/05/21 00:55:36;;;;;;;4.08;0.90;;;;;;;;;;4508039;77;28487;-78
2022/05/21 01:01:39;;;;;;;1.98;0.82;;;;;;;;;;4494993;77;28522;-79
2022/05/21 01:07:47;;;;;;;1.98;0.82;;;;;;;;;;4477716;77;28471;-80
2022/05/21 01:13:49;;;;;;;1.75;0.90;;;;;;;;;;4500646;77;28526;-80
2022/05/21 01:20:00;;;;;;;2.98;1.02;;;;;;;;;;4496003;77;28573;-79
2022/05/21 01:26:12;;;;;;;1.60;1.00;;;;;;;;;;4482879;77;28523;-78
2022/05/21 01:32:16;;;;;;;2.72;1.00;;;;;;;;;;4498120;77;28479;-81
2022/05/21 01:38:19;;;;;;;1.80;0.90;;;;;;;;;;4487105;77;28476;-81
2022/05/21 01:44:38;;;;;;;1.95;0.80;;;;;;;;;;4487449;77;28467;-81
2022/05/21 01:50:39;;;;;;;3.22;0.90;;;;;;;;;;4506825;77;28523;-82
2022/05/21 01:56:40;;;;;;;2.87;1.00;;;;;;;;;;4487194;77;28566;-80
2022/05/21 02:02:41;;;;;;;8.65;1.57;;;;;;;;;;4427392;78;28533;-80
2022/05/21 02:08:42;;;;;;;2.00;0.95;;;;;;;;;;4429036;78;28502;-80
2022/05/21 02:14:43;;;;;;;1.30;0.95;;;;;;;;;;4407704;78;28535;-80
2022/05/21 02:20:46;;;;;;;2.58;1.12;;;;;;;;;;4416886;78;28499;-80
2022/05/21 02:26:46;;;;;;;2.15;1.00;;;;;;;;;;4365158;78;28475;-79
2022/05/21 02:32:47;;;;;;;3.20;1.10;;;;;;;;;;4417573;78;28452;-78
2022/05/21 02:45:08;;;;;;;1.95;1.10;;;;;;;;;;4378295;78;28449;-79
2022/05/21 02:51:10;;;;;;;2.02;1.07;;;;;;;;;;4432198;78;28550;-78
2022/05/21 02:57:11;;;;;;;1.50;1.20;;;;;;;;;;4438635;78;28563;-77
2022/05/21 03:03:18;;;;;;;1.70;1.15;;;;;;;;;;4425157;79;28513;-78
2022/05/21 03:15:46;;;;;;;3.60;1.40;;;;;;;;;;4392460;79;28523;-80
2022/05/21 03:21:47;;;;;;;3.52;1.30;;;;;;;;;;4397076;79;28470;-81
2022/05/21 03:27:48;;;;;;;2.52;1.20;;;;;;;;;;4390196;79;28536;-81
2022/05/21 03:33:49;;;;;;;2.70;1.35;;;;;;;;;;4410965;79;28500;-81
2022/05/21 03:39:50;;;;;;;2.15;1.10;;;;;;;;;;4431183;79;28510;-80
2022/05/21 03:45:59;;;;;;;4.58;1.77;;;;;;;;;;4422021;79;28543;-81
2022/05/21 03:52:01;;;;;;;4.30;1.72;;;;;;;;;;4345386;79;28520;-81
2022/05/21 03:58:02;;;;;;;5.47;1.62;;;;;;;;;;4380187;79;28524;-81
2022/05/21 04:04:03;;;;;;;4.70;1.67;;;;;;;;;;4339473;79;28458;-80
2022/05/21 04:10:10;;;;;;;3.72;1.70;;;;;;;;;;4324121;79;28509;-80
2022/05/21 04:16:15;;;;;;;3.85;2.08;;;;;;;;;;4356628;79;28579;-81
2022/05/21 04:22:16;;;;;;;4.85;2.10;;;;;;;;;;4399567;79;28503;-81
2022/05/21 04:28:25;;;;;;;6.00;2.42;;;;;;;;;;4403202;79;28545;-80
2022/05/21 04:34:26;;;;;;;6.80;2.20;;;;;;;;;;4394985;79;28500;-82
2022/05/21 04:40:26;;;;;;;5.08;2.42;;;;;;;;;;4396097;79;28521;-81
2022/05/21 04:46:27;;;;;;;4.90;2.30;;;;;;;;;;4395743;79;28459;-79
2022/05/21 04:52:28;;;;;;;7.53;2.70;;;;;;;;;;4399434;79;28481;-79
2022/05/21 04:58:31;;;;;;;5.45;2.25;;;;;;;;;;4409829;79;28528;-78
2022/05/21 05:04:37;;;;;;;4.37;2.40;;;;;;;;;;4377795;79;28533;-80
2022/05/21 05:10:45;;;;;;;5.55;2.37;;;;;;;;;;4372708;79;28511;-82
2022/05/21 05:16:49;;;;;;;5.03;2.45;;;;;;;;;;4373923;79;28525;-83
2022/05/21 05:23:01;;;;;;;7.22;2.65;;;;;;;;;;4372142;79;28486;-83
2022/05/21 05:29:05;;;;;;;6.37;2.60;;;;;;;;;;4396548;79;28512;-83
2022/05/21 05:35:08;;;;;;;5.55;2.75;;;;;;;;;;4427076;79;28533;-82
2022/05/21 05:41:09;;;;;;;7.28;3.00;;;;;;;;;;4428026;79;28515;-82
2022/05/21 06:12:46;;;;;;;10.10;3.20;;;;;;;;;;3497359;100;28573;-81
2022/05/21 06:18:53;;;;;;;6.05;3.00;;;;;;;;;;3660015;96;28525;-78
2022/05/21 06:24:59;;;;;;;;;;;;;;;;;;3662692;96;28540;-77
2022/05/21 06:31:00;;;;;;;9.90;3.87;;;;;;;;;;3747598;92;20293;-77
2022/05/21 06:37:02;;;;;;;6.85;3.80;;;;;;;;;;3713093;94;28545;-78
2022/05/21 06:43:03;;;;;;;5.22;3.40;;;;;;;;;;3796583;90;28477;-80
2022/05/21 06:49:04;;;;;;;9.50;4.53;;;;;;;;;;4154581;80;28468;-79
2022/05/21 06:55:05;;;;;;;8.55;4.62;;;;;;;;;;4374123;79;28571;-77
2022/05/21 07:01:07;;;;;;;6.10;3.90;;;;;;;;;;4316382;80;28539;-78
2022/05/21 07:13:30;;;;;;;8.63;4.40;;;;;;;;;;4361606;79;28540;-77
2022/05/21 07:19:31;;;;;;;6.33;4.42;;;;;;;;;;4438291;78;29369;-77
2022/05/21 07:25:32;;;;;;;6.65;3.15;;;;;;;;;;4354483;78;28573;-77
2022/05/21 07:31:33;;;;;;;9.18;4.28;;;;;;;;;;4398477;79;28501;-77
2022/05/21 07:37:41;;;;;;;9.55;2.70;;;;;;;;;;4433562;78;28471;-77
2022/05/21 07:43:48;;;;;;;3.65;2.55;;;;;;;;;;4428367;78;28532;-78
2022/05/21 07:49:51;;;;;;;9.85;2.75;;;;;;;;;;4412381;78;28544;-79
2022/05/21 07:55:53;;;;;;;5.08;2.10;;;;;;;;;;4381856;78;28543;-79
2022/05/21 08:01:54;;;;;;;4.22;1.92;;;;;;;;;;4387494;78;28544;-78
2022/05/21 08:07:55;;;;;;;4.50;1.52;;;;;;;;;;4373437;79;28486;-79
2022/05/21 08:13:56;;;;;;;3.72;1.85;;;;;;;;;;4372770;79;28549;-79
2022/05/21 08:19:57;;;;;;;5.05;1.40;;;;;;;;;;4420992;79;28578;-78
2022/05/21 08:32:17;;;;;;;8.08;1.12;;;;;;;;;;4332835;79;28537;-78
2022/05/21 08:38:24;;;;;;;3.27;1.02;;;;;;;;;;4427031;79;28543;-78
2022/05/21 08:44:45;;;;;;;2.60;1.35;;;;;;;;;;4406226;79;28940;-79
2022/05/21 08:50:53;;;;;;;3.90;0.98;;;;;;;;;;4403831;79;28529;-78
2022/05/21 08:57:01;;;;;;;5.20;0.80;;;;;;;;;;4421363;79;28611;-78
2022/05/21 09:03:09;;;;;;;9.63;1.95;;;;;;;;;;4403062;79;28545;-77
2022/05/21 09:09:15;;;;;;;7.33;0.80;;;;;;;;;;4420066;79;28535;-78
2022/05/21 09:16:54;;;;;;;6.57;0.80;;;;;;;;;;4400326;79;28566;-77
2022/05/21 09:21:23;;;;;;;5.05;0.82;;;;;;;;;;4405055;78;28526;-77
2022/05/21 09:27:31;;;;;;;5.20;0.90;;;;;;;;;;4349044;79;28516;-79
2022/05/21 09:33:40;;;;;;;4.85;0.82;;;;;;;;;;4384126;79;28548;-77
2022/05/21 09:39:41;;;;;;;4.17;0.80;;;;;;;;;;4399222;79;28522;-78
2022/05/21 09:45:43;;;;;;;4.10;0.70;;;;;;;;;;4330543;79;28501;-79
2022/05/21 09:51:46;;;;;;;4.55;0.70;;;;;;;;;;4401708;79;28521;-79
2022/05/21 09:57:47;;;;;;;1.27;0.53;;;;;;;;;;4320067;79;28586;-77
2022/05/21 10:03:50;;;;;;;4.87;0.93;;;;;;;;;;4367001;79;28497;-77
2022/05/21 10:16:31;;;;;;;1.15;0.50;;;;;;;;;;4366093;79;28521;-77
2022/05/21 10:22:41;;;;;;;2.37;0.62;;;;;;;;;;4427394;79;28505;-77
2022/05/21 10:28:47;;;;;;;0.75;0.50;;;;;;;;;;4397314;78;28501;-77
2022/05/21 10:34:56;;;;;;;4.97;0.93;;;;;;;;;;4427734;79;28521;-79
2022/05/21 10:41:02;;;;;;;3.12;0.62;;;;;;;;;;4390680;79;28528;-77
2022/05/21 10:47:05;;;;;;;1.72;0.40;;;;;;;;;;4362970;79;28531;-78
2022/05/21 10:53:17;;;;;;;2.60;0.50;;;;;;;;;;4381191;79;28515;-77
2022/05/21 10:59:36;;;;;;;4.80;0.70;;;;;;;;;;4366114;79;28586;-77
2022/05/21 11:05:43;;;;;;;4.25;0.42;;;;;;;;;;4390437;79;28481;-77
2022/05/21 11:11:47;;;;;;;4.72;0.60;;;;;;;;;;4407464;79;28458;-77
2022/05/21 11:17:49;;;;;;;2.30;0.50;;;;;;;;;;4416704;79;28537;-79
2022/05/21 11:23:52;;;;;;;2.95;0.68;;;;;;;;;;4408980;79;28575;-80
2022/05/21 11:29:55;;;;;;;3.65;0.60;;;;;;;;;;4411068;79;28507;-83
2022/05/21 11:42:31;;;;;;;1.32;0.50;;;;;;;;;;4407041;79;28508;-80
2022/05/21 11:48:33;;;;;;;2.35;0.93;;;;;;;;;;4407477;79;28545;-81
2022/05/21 11:54:48;;;;;;;2.20;0.50;;;;;;;;;;4382298;79;28529;-79
2022/05/21 12:00:49;;;;;;;3.52;0.40;;;;;;;;;;4407439;79;28553;-78
2022/05/21 12:06:56;;;;;;;3.98;0.50;;;;;;;;;;4296198;79;28508;-79
2022/05/21 12:13:05;;;;;;;0.53;0.40;;;;;;;;;;4407277;79;28492;-79
2022/05/21 12:19:13;;;;;;;2.67;0.60;;;;;;;;;;4399192;78;28498;-78
2022/05/21 12:25:34;;;;;;;1.00;0.53;;;;;;;;;;4367966;79;28549;-77
2022/05/21 12:31:40;;;;;;;1.30;0.57;;;;;;;;;;4436290;78;28540;-77
2022/05/21 12:37:41;;;;;;;;;;;;;;;;;;4405616;78;28564;-78
2022/05/21 12:43:47;;;;;;;3.42;0.60;;;;;;;;;;4422816;78;20258;-76
2022/05/21 12:49:56;;;;;;;2.95;0.65;;;;;;;;;;4422992;78;28452;-76
2022/05/21 12:56:00;;;;;;;1.87;0.50;;;;;;;;;;4373844;79;50028;-78
2022/05/21 13:02:16;;;;;;;3.00;0.72;;;;;;;;;;4398896;78;28544;-79
2022/05/21 13:08:23;;;;;;;7.08;0.70;;;;;;;;;;4406637;78;28553;-77
2022/05/21 13:14:29;;;;;;;1.65;0.80;;;;;;;;;;4421554;78;28552;-77
2022/05/21 13:20:32;;;;;;;3.50;1.13;;;;;;;;;;4412322;78;28517;-78
2022/05/21 13:26:39;;;;;;;4.15;0.80;;;;;;;;;;4425947;79;28525;-77
2022/05/21 13:32:57;;;;;;;2.30;0.60;;;;;;;;;;4358815;80;28547;-78
2022/05/21 13:38:59;;;;;;;2.10;0.80;;;;;;;;;;4386598;80;28568;-78
2022/05/21 13:45:05;;;;;;;2.35;1.20;;;;;;;;;;4396723;80;28551;-76
2022/05/21 13:51:08;;;;;;;4.10;0.80;;;;;;;;;;4352285;80;28532;-77
2022/05/21 13:57:16;;;;;;;5.35;1.02;;;;;;;;;;4406783;79;28505;-76
2022/05/21 14:03:19;;;;;;;2.50;0.75;;;;;;;;;;4414351;78;28621;-77
2022/05/21 14:09:28;;;;;;;2.70;0.62;;;;;;;;;;4328373;80;28511;-78
2022/05/21 14:15:31;;;;;;;4.72;0.90;;;;;;;;;;4308087;80;28515;-78
2022/05/21 14:21:32;;;;;;;1.85;0.80;;;;;;;;;;4502862;77;28526;-75
2022/05/21 14:27:33;;;;;;;2.95;0.75;;;;;;;;;;4487870;77;28536;-79
2022/05/21 14:33:36;;;;;;;4.92;0.90;;;;;;;;;;4471776;77;28501;-78
2022/05/21 14:39:37;;;;;;;2.72;1.52;;;;;;;;;;4486376;77;28517;-77
2022/05/21 14:45:44;;;;;;;3.40;0.95;;;;;;;;;;4482832;77;28529;-81
2022/05/21 14:58:06;;;;;;;3.00;0.90;;;;;;;;;;4483342;77;28487;-82
2022/05/21 15:04:08;;;;;;;3.95;0.90;;;;;;;;;;4484816;77;28525;-82
2022/05/21 15:10:16;;;;;;;3.40;0.68;;;;;;;;;;4482402;77;28530;-81
2022/05/21 15:16:18;;;;;;;2.83;0.78;;;;;;;;;;4473643;77;28491;-81
2022/05/21 15:22:20;;;;;;;3.02;1.20;;;;;;;;;;4474385;78;28505;-81
2022/05/21 15:28:20;;;;;;;1.98;0.62;;;;;;;;;;4456293;78;28519;-81
2022/05/21 15:34:21;;;;;;;2.95;1.00;;;;;;;;;;4476321;78;28578;-82
2022/05/21 15:40:22;;;;;;;1.77;0.82;;;;;;;;;;4472827;78;29042;-81
2022/05/21 15:46:29;;;;;;;2.05;0.80;;;;;;;;;;4477772;78;28472;-82
2022/05/21 15:52:32;;;;;;;1.82;0.70;;;;;;;;;;4466335;78;28469;-82
2022/05/21 15:58:33;;;;;;;2.62;0.80;;;;;;;;;;4469058;79;28476;-81
2022/05/21 16:04:34;;;;;;;2.90;0.70;;;;;;;;;;4465413;78;28515;-81
2022/05/21 16:10:38;;;;;;;7.10;0.78;;;;;;;;;;4453349;78;28528;-82
2022/05/21 16:16:38;;;;;;;2.30;0.70;;;;;;;;;;4483157;77;28498;-82
2022/05/21 16:22:40;;;;;;;2.55;0.70;;;;;;;;;;4504728;77;28507;-82
2022/05/21 16:28:41;;;;;;;2.42;0.85;;;;;;;;;;4510201;77;28528;-82
2022/05/21 16:34:42;;;;;;;1.72;0.70;;;;;;;;;;4507016;77;28587;-82
2022/05/21 16:40:43;;;;;;;5.33;1.15;;;;;;;;;;4508547;77;28510;-82
2022/05/21 16:46:44;;;;;;;2.02;0.60;;;;;;;;;;4506112;77;28537;-82
2022/05/21 16:52:45;;;;;;;1.37;0.80;;;;;;;;;;4509473;77;28505;-82
2022/05/21 16:58:51;;;;;;;3.75;0.88;;;;;;;;;;4509942;77;28473;-82
2022/05/21 17:05:00;;;;;;;4.15;0.93;;;;;;;;;;4507836;77;28548;-82
2022/05/21 17:11:08;;;;;;;3.12;0.78;;;;;;;;;;4496768;77;28543;-82
2022/05/21 17:17:09;;;;;;;2.22;0.60;;;;;;;;;;4505249;77;28517;-79
2022/05/21 17:23:10;;;;;;;1.22;0.60;;;;;;;;;;4495234;78;28514;-81
2022/05/21 17:35:37;;;;;;;1.77;0.78;;;;;;;;;;4504401;77;28614;-79
2022/05/21 17:41:38;;;;;;;1.72;0.62;;;;;;;;;;4521527;77;28533;-77
2022/05/21 17:47:39;;;;;;;2.05;0.80;;;;;;;;;;4502619;77;28483;-79
2022/05/21 17:53:45;;;;;;;2.20;0.90;;;;;;;;;;4481704;77;28522;-77
2022/05/21 17:59:46;;;;;;;4.05;1.27;;;;;;;;;;4487180;77;28494;-78
2022/05/21 18:05:48;;;;;;;2.27;1.17;;;;;;;;;;4493450;77;28430;-79
2022/05/21 18:11:56;;;;;;;1.25;0.80;;;;;;;;;;4513235;77;28518;-79
2022/05/21 18:24:17;;;;;;;3.22;0.93;;;;;;;;;;4481512;78;28577;-78
2022/05/21 18:30:19;;;;;;;3.30;0.90;;;;;;;;;;4480675;79;28535;-78
2022/05/21 18:36:21;;;;;;;3.70;1.20;;;;;;;;;;4429224;78;28629;-78
2022/05/21 18:42:21;;;;;;;1.50;0.88;;;;;;;;;;4464235;78;28517;-79
2022/05/21 18:48:22;;;;;;;2.65;1.12;;;;;;;;;;4408651;78;28538;-82
2022/05/21 18:54:23;;;;;;;2.40;1.00;;;;;;;;;;4415273;79;28473;-85
2022/05/21 19:00:31;;;;;;;1.92;1.00;;;;;;;;;;4446908;78;28518;-84
2022/05/21 19:06:32;;;;;;;2.20;1.40;;;;;;;;;;4486737;78;28470;-81
2022/05/21 19:12:34;;;;;;;3.55;1.42;;;;;;;;;;4484138;78;28581;-82
2022/05/21 19:24:57;;;;;;;1.25;0.90;;;;;;;;;;4441244;78;28482;-81
2022/05/21 19:31:04;;;;;;;2.92;1.27;;;;;;;;;;4452930;78;28523;-82
2022/05/21 19:37:10;;;;;;;3.40;1.35;;;;;;;;;;4466653;78;28543;-82
2022/05/21 19:43:18;;;;;;;3.62;1.30;;;;;;;;;;4474151;78;28543;-76
2022/05/21 19:49:19;;;;;;;3.83;1.50;;;;;;;;;;4468157;79;28509;-77
2022/05/21 19:55:26;;;;;;;4.50;1.85;;;;;;;;;;4478524;78;28517;-79
2022/05/21 20:01:31;;;;;;;4.22;1.70;;;;;;;;;;4487748;78;28605;-78
2022/05/21 20:07:32;;;;;;;6.20;2.00;;;;;;;;;;4487299;78;28563;-81
2022/05/21 20:13:33;;;;;;;5.70;1.85;;;;;;;;;;4476866;78;28486;-83
2022/05/21 20:19:35;;;;;;;6.15;2.00;;;;;;;;;;4496899;78;28498;-84
2022/05/21 20:25:41;;;;;;;6.62;1.95;;;;;;;;;;4516500;77;28474;-81
2022/05/21 20:31:48;;;;;;;5.97;3.40;;;;;;;;;;4510236;77;28545;-83
2022/05/21 20:37:51;;;;;;;8.45;4.05;;;;;;;;;;4506512;77;28478;-84
2022/05/21 20:43:52;;;;;;;6.67;2.42;;;;;;;;;;4494211;78;28508;-83
2022/05/21 20:49:58;;;;;;;5.20;2.02;;;;;;;;;;4500328;78;28518;-83
2022/05/21 20:56:05;;;;;;;3.05;1.32;;;;;;;;;;4495723;77;28486;-83
2022/05/21 21:02:14;;;;;;;2.58;1.67;;;;;;;;;;4512473;77;28509;-83
2022/05/21 21:08:21;;;;;;;5.22;1.45;;;;;;;;;;4488494;79;28564;-83
2022/05/21 21:14:23;;;;;;;3.80;1.60;;;;;;;;;;4534556;77;28451;-82
2022/05/21 21:20:24;;;;;;;5.17;1.50;;;;;;;;;;4497322;77;28534;-84
2022/05/21 21:26:30;;;;;;;3.98;1.50;;;;;;;;;;4511205;78;28509;-82
2022/05/21 21:32:31;;;;;;;2.87;1.35;;;;;;;;;;4513093;78;28518;-81
2022/05/21 21:38:38;;;;;;;6.25;1.57;;;;;;;;;;4515603;78;28502;-84
2022/05/21 21:44:39;;;;;;;4.42;1.55;;;;;;;;;;4531269;77;28456;-81
2022/05/21 21:50:42;;;;;;;6.17;1.70;;;;;;;;;;4520731;77;28473;-82
2022/05/21 21:56:48;;;;;;;1.98;1.20;;;;;;;;;;4484701;79;28542;-82
2022/05/21 22:02:49;;;;;;;3.10;1.50;;;;;;;;;;4513817;77;28490;-83
2022/05/21 22:08:56;;;;;;;2.45;1.20;;;;;;;;;;4516824;78;28478;-82
2022/05/21 22:14:57;;;;;;;1.92;1.35;;;;;;;;;;4508913;78;28513;-82
2022/05/21 22:20:58;;;;;;;2.47;1.30;;;;;;;;;;4458787;78;28483;-81
2022/05/21 22:26:59;;;;;;;2.67;1.50;;;;;;;;;;4475772;78;28526;-81
2022/05/21 22:33:00;;;;;;;4.15;1.77;;;;;;;;;;4484624;78;28543;-80
2022/05/21 22:39:01;;;;;;;3.27;1.55;;;;;;;;;;4475667;78;28550;-82
2022/05/21 22:45:04;;;;;;;2.37;1.37;;;;;;;;;;4483816;78;29184;-83
2022/05/21 22:51:15;;;;;;;4.62;1.67;;;;;;;;;;4458736;78;28509;-83
2022/05/21 22:57:16;;;;;;;2.50;1.30;;;;;;;;;;4448422;78;28597;-82
2022/05/21 23:03:26;;;;;;;3.45;1.45;;;;;;;;;;4474572;78;28629;-82
2022/05/21 23:09:27;;;;;;;3.00;1.32;;;;;;;;;;4438156;78;28551;-84
2022/05/21 23:28:20;;;;;;;4.40;1.50;;;;;;;;;;4465596;78;28481;-84
2022/05/21 23:34:27;;;;;;;4.00;1.17;;;;;;;;;;4419804;78;28497;-84
2022/05/21 23:40:35;;;;;;;4.92;1.22;;;;;;;;;;4433452;79;28521;-83
2022/05/21 23:46:42;;;;;;;2.55;1.12;;;;;;;;;;4458888;78;28578;-83
2022/05/21 23:52:43;;;;;;;3.15;1.40;;;;;;;;;;4432225;78;28469;-85
2022/05/21 23:58:44;;;;;;;2.12;1.25;;;;;;;;;;4384600;80;28528;-85
